Time;durP1;ratioP1;P1;durP2;ratioP2;P2;SDS_P1;SDS_P2;PMS_P1;PMS_P2;Temp;Humidity;BMP_temperature;BMP_pressure;BME280_temperature;BME280_humidity;BME280_pressure;Samples;Min_cycle;Max_cycle;Signal;HPM_P1;HPM_P2
2022/08/30 00:02:11;;;;;;;18.00;5.70;;;;;;;27.04;60.86;101207.22;5072136;28;20393;-78
2022/08/30 00:04:36;;;;;;;13.98;5.93;;;;;;;27.00;60.39;101199.19;5071518;28;20021;-78
2022/08/30 00:07:02;;;;;;;11.80;6.22;;;;;;;27.01;60.63;101203.66;5070810;28;20540;-78
2022/08/30 00:09:28;;;;;;;13.57;5.93;;;;;;;26.97;61.19;101195.66;5071311;28;20032;-80
2022/08/30 00:11:53;;;;;;;;;;;;;;;27.08;61.22;101203.63;5060670;28;20043;-77
2022/08/30 00:14:19;;;;;;;12.43;5.70;;;;;;;27.04;60.83;101209.91;5071437;28;20313;-78
2022/08/30 00:16:45;;;;;;;16.30;5.88;;;;;;;26.98;60.58;101209.03;5072235;28;20020;-79
2022/08/30 00:19:10;;;;;;;14.27;6.15;;;;;;;26.98;60.77;101206.34;5071757;28;20362;-79
2022/08/30 00:21:38;;;;;;;17.52;5.97;;;;;;;26.97;60.57;101199.22;5071554;28;20479;-78
2022/08/30 00:24:04;;;;;;;15.35;6.15;;;;;;;26.98;60.88;101200.09;5070756;28;20469;-79
2022/08/30 00:26:29;;;;;;;14.52;5.95;;;;;;;27.00;60.61;101203.66;5071178;28;20035;-78
2022/08/30 00:28:55;;;;;;;14.75;5.80;;;;;;;27.02;60.67;101212.59;5070860;28;20108;-78
2022/08/30 00:31:20;;;;;;;16.25;6.03;;;;;;;26.92;60.39;101192.09;5071280;28;20071;-78
2022/08/30 00:33:46;;;;;;;12.57;6.07;;;;;;;26.98;61.23;101208.16;5070977;28;20029;-78
2022/08/30 00:36:12;;;;;;;15.02;6.00;;;;;;;27.01;60.70;101210.81;5070336;28;20401;-79
2022/08/30 00:38:37;;;;;;;13.80;5.50;;;;;;;26.88;60.65;101193.94;5071030;28;20420;-77
2022/08/30 00:41:03;;;;;;;15.55;5.80;;;;;;;26.89;60.77;101201.06;5070560;28;20111;-77
2022/08/30 00:43:33;;;;;;;14.13;6.00;;;;;;;26.97;61.11;101214.44;5053079;28;20067;-78
2022/08/30 00:46:03;;;;;;;13.13;5.78;;;;;;;26.92;60.64;101203.72;5071605;28;20043;-78
2022/08/30 00:48:30;;;;;;;13.95;5.93;;;;;;;26.88;60.45;101203.75;5070867;28;20058;-78
2022/08/30 00:50:59;;;;;;;17.77;6.07;;;;;;;26.91;60.71;101204.63;5069998;28;20028;-77
2022/08/30 00:53:29;;;;;;;13.10;5.70;;;;;;;26.95;60.39;101214.44;5052784;28;20024;-77
2022/08/30 00:55:55;;;;;;;14.75;6.10;;;;;;;26.92;60.52;101210.88;5062216;28;20031;-78
2022/08/30 00:58:26;;;;;;;13.32;5.90;;;;;;;26.89;60.63;101209.09;5064568;28;20032;-78
2022/08/30 01:00:54;;;;;;;14.20;5.97;;;;;;;26.92;60.70;101214.44;5068990;28;20458;-78
2022/08/30 01:03:20;;;;;;;18.65;5.63;;;;;;;26.92;60.59;101222.47;5052744;28;20060;-79
2022/08/30 01:05:47;;;;;;;14.55;5.65;;;;;;;26.86;60.08;101217.19;5062427;28;20056;-78
2022/08/30 01:08:14;;;;;;;14.13;6.07;;;;;;;26.93;60.48;101212.66;5053355;28;20032;-78
2022/08/30 01:10:40;;;;;;;11.20;5.18;;;;;;;26.92;60.53;101217.09;5070210;28;20489;-78
2022/08/30 01:13:08;;;;;;;17.48;6.03;;;;;;;26.91;60.26;101201.06;5062206;28;20096;-78
2022/08/30 01:15:34;;;;;;;13.63;5.85;;;;;;;26.89;60.32;101214.47;5052539;28;20054;-79
2022/08/30 01:18:01;;;;;;;13.82;5.90;;;;;;;26.86;60.07;101208.22;5067521;28;20496;-79
2022/08/30 01:20:31;;;;;;;15.82;5.80;;;;;;;26.85;60.38;101211.81;5056446;28;20487;-77
2022/08/30 01:23:00;;;;;;;12.57;6.05;;;;;;;26.86;60.19;101210.91;5052246;28;20470;-79
2022/08/30 01:25:28;;;;;;;16.02;6.20;;;;;;;26.83;60.12;101208.25;5069691;28;20103;-77
2022/08/30 01:28:00;;;;;;;15.43;5.57;;;;;;;26.86;60.03;101208.22;5047331;28;20098;-77
2022/08/30 01:30:28;;;;;;;17.63;5.85;;;;;;;26.83;59.98;101208.25;5049516;28;20508;-77
2022/08/30 01:32:59;;;;;;;13.93;5.97;;;;;;;26.87;60.10;101207.34;5060983;28;20043;-78
2022/08/30 01:35:25;;;;;;;14.98;5.80;;;;;;;26.86;60.40;101208.22;5070465;28;20020;-78
2022/08/30 01:37:51;;;;;;;19.40;5.85;;;;;;;26.73;59.94;101192.25;5070561;28;20428;-77
2022/08/30 01:40:18;;;;;;;16.17;5.88;;;;;;;26.84;60.58;101207.34;5069715;28;20492;-78
2022/08/30 01:42:44;;;;;;;12.98;5.82;;;;;;;26.85;59.94;101203.78;5070008;28;20098;-78
2022/08/30 01:45:10;;;;;;;15.93;5.80;;;;;;;26.83;59.93;101194.84;5073425;28;20444;-78
2022/08/30 01:47:36;;;;;;;18.35;5.78;;;;;;;26.84;60.17;101197.53;5075212;28;20056;-77
2022/08/30 01:50:04;;;;;;;16.92;6.00;;;;;;;26.81;60.27;101202.91;5070366;28;20052;-79
2022/08/30 01:52:29;;;;;;;14.38;5.85;;;;;;;26.79;60.01;101188.63;5052927;28;20035;-78
2022/08/30 01:54:55;;;;;;;13.80;5.38;;;;;;;26.80;59.99;101196.66;5067762;28;20024;-78
2022/08/30 01:57:22;;;;;;;13.23;5.78;;;;;;;26.81;59.87;101200.22;5069756;28;20024;-79
2022/08/30 01:59:49;;;;;;;15.60;6.03;;;;;;;26.82;60.26;101196.66;5069694;28;20031;-78
2022/08/30 02:02:21;;;;;;;18.48;6.07;;;;;;;26.78;59.84;101194.91;5054670;28;20576;-78
2022/08/30 02:04:47;;;;;;;14.45;5.50;;;;;;;26.80;59.67;101199.34;5083495;28;20043;-78
2022/08/30 02:07:13;;;;;;;9.65;5.35;;;;;;;26.78;59.69;101186.84;5074402;28;20021;-78
2022/08/30 02:09:39;;;;;;;14.57;5.20;;;;;;;26.79;60.02;101189.50;5074380;28;20032;-78
2022/08/30 02:12:06;;;;;;;12.77;5.88;;;;;;;26.79;59.93;101191.28;5069896;28;20522;-78
2022/08/30 02:14:33;;;;;;;16.40;6.10;;;;;;;26.77;59.57;101191.28;5074756;28;20052;-78
2022/08/30 02:17:00;;;;;;;11.85;5.35;;;;;;;26.75;59.61;101186.84;5073688;28;20452;-77
2022/08/30 02:19:26;;;;;;;22.70;5.93;;;;;;;26.77;59.59;101193.97;5073355;28;20020;-77
2022/08/30 02:21:51;;;;;;;20.40;6.55;;;;;;;26.76;59.66;101194.91;5075000;28;20097;-78
2022/08/30 02:24:17;;;;;;;21.00;6.03;;;;;;;26.64;60.18;101176.22;5071273;28;20114;-78
2022/08/30 02:26:43;;;;;;;;;;;;;;;26.79;59.86;101200.22;5057880;28;20601;-78
2022/08/30 02:29:08;;;;;;;12.30;5.43;;;;;;;26.73;59.98;101196.69;5072334;28;19916;-78
2022/08/30 02:31:34;;;;;;;13.18;5.80;;;;;;;26.75;59.51;101201.13;5073920;28;20047;-78
2022/08/30 02:34:00;;;;;;;10.57;5.18;;;;;;;26.74;59.82;101206.53;5073092;28;20068;-77
2022/08/30 02:36:26;;;;;;;13.90;5.88;;;;;;;26.73;59.52;101210.09;5056222;28;20039;-77
2022/08/30 02:38:52;;;;;;;16.52;5.47;;;;;;;26.72;59.80;101200.28;5054992;28;20036;-78
2022/08/30 02:41:18;;;;;;;18.30;5.57;;;;;;;26.70;59.54;101210.13;5055914;28;20040;-79
2022/08/30 02:43:45;;;;;;;10.23;5.22;;;;;;;26.70;59.75;101208.31;5072272;28;20131;-79
2022/08/30 02:46:10;;;;;;;13.90;5.88;;;;;;;26.69;59.77;101206.56;5073710;28;20028;-78
2022/08/30 02:48:36;;;;;;;;;;;;;;;26.74;59.79;101215.44;5074098;28;20386;-77
2022/08/30 02:51:07;;;;;;;13.68;5.88;;;;;;;26.68;60.01;101212.81;5073007;28;19962;-79
2022/08/30 02:53:33;;;;;;;18.30;5.93;;;;;;;26.65;59.74;101209.25;5056060;28;20036;-78
2022/08/30 02:55:59;;;;;;;15.50;6.05;;;;;;;26.69;60.03;101222.63;5055937;28;20039;-78
2022/08/30 02:58:24;;;;;;;;;;;;;;;26.70;59.69;101223.50;5074189;28;20032;-79
2022/08/30 03:00:50;;;;;;;15.48;5.63;;;;;;;26.67;59.98;101226.19;5074637;28;20460;-78
2022/08/30 03:03:15;;;;;;;15.30;6.18;;;;;;;26.68;59.71;101218.16;5066469;28;20024;-77
2022/08/30 03:05:41;;;;;;;14.43;5.90;;;;;;;26.66;59.74;101224.44;5073750;28;20024;-77
2022/08/30 03:08:07;;;;;;;14.93;6.28;;;;;;;26.63;60.25;101227.09;5055257;28;20460;-78
2022/08/30 03:10:33;;;;;;;16.55;5.80;;;;;;;26.64;59.50;101223.53;5072020;28;20480;-77
2022/08/30 03:12:59;;;;;;;13.95;5.90;;;;;;;26.63;59.80;101229.78;5068542;28;20485;-79
2022/08/30 03:15:25;;;;;;;15.88;5.40;;;;;;;26.61;59.89;101227.13;5074177;28;20027;-77
2022/08/30 03:17:52;;;;;;;15.52;5.43;;;;;;;26.56;59.61;101220.84;5073351;28;20033;-78
2022/08/30 03:20:19;;;;;;;16.17;5.50;;;;;;;26.63;59.86;101227.09;5055320;28;20447;-78
2022/08/30 03:22:45;;;;;;;12.95;5.18;;;;;;;26.62;59.63;101226.22;5053926;28;20137;-78
2022/08/30 03:25:10;;;;;;;;;;;;;;;26.65;59.54;101228.91;5071844;28;20111;-78
2022/08/30 03:27:36;;;;;;;13.57;5.63;;;;;;;26.54;59.66;101228.94;5072937;28;19918;-78
2022/08/30 03:30:03;;;;;;;13.68;5.50;;;;;;;26.59;59.46;101235.16;5072750;28;20494;-78
2022/08/30 03:32:29;;;;;;;17.60;5.90;;;;;;;26.51;59.45;101218.22;5072028;28;20425;-77
2022/08/30 03:34:54;;;;;;;;;;;;;;;26.64;59.38;101240.50;5072917;28;20185;-78
2022/08/30 03:37:20;;;;;;;16.15;5.82;;;;;;;26.53;59.22;101243.19;5072177;28;20368;-77
2022/08/30 03:39:46;;;;;;;16.00;5.70;;;;;;;26.45;59.16;101233.41;5072483;28;20051;-79
2022/08/30 03:42:11;;;;;;;;;;;;;;;26.57;59.17;101253.03;5069898;28;20397;-80
2022/08/30 03:44:37;;;;;;;16.40;5.72;;;;;;;26.45;59.06;101238.78;5072497;28;20295;-80
2022/08/30 03:47:03;;;;;;;14.45;5.72;;;;;;;26.52;59.61;101251.22;5072946;28;20024;-80
2022/08/30 03:49:30;;;;;;;13.20;5.88;;;;;;;26.50;59.34;101245.91;5053868;28;20029;-80
2022/08/30 03:51:56;;;;;;;19.13;5.38;;;;;;;26.54;59.12;101257.47;5055150;28;20028;-79
2022/08/30 03:54:21;;;;;;;;;;;;;;;26.57;59.63;101254.84;5072546;28;20454;-80
2022/08/30 03:56:47;;;;;;;12.05;5.50;;;;;;;26.48;59.13;101247.69;5072265;28;19912;-80
2022/08/30 03:59:13;;;;;;;16.15;5.53;;;;;;;26.44;59.36;101253.03;5070138;28;20041;-79
2022/08/30 04:01:40;;;;;;;;;;;;;;;26.51;59.24;101257.50;5062004;28;20107;-80
2022/08/30 04:04:06;;;;;;;;;;;;;;;26.50;59.38;101255.69;5053800;28;19913;-81
2022/08/30 04:06:32;;;;;;;17.73;6.30;;;;;;;26.48;58.91;101253.06;5051806;28;19923;-80
2022/08/30 04:08:57;;;;;;;;;;;;;;;26.52;59.43;101257.50;5068564;28;20024;-81
2022/08/30 04:13:50;;;;;;;;;;;;;;;26.45;59.21;101265.56;5049711;28;20020;-79
2022/08/30 04:16:18;;;;;;;17.42;5.45;;;;;;;26.39;59.09;101253.97;5059668;28;19908;-80
2022/08/30 04:18:43;;;;;;;13.80;5.40;;;;;;;26.43;59.12;101268.22;5071303;28;20134;-80
2022/08/30 04:21:09;;;;;;;;;;;;;;;26.50;59.10;101271.78;5064221;28;20502;-80
2022/08/30 04:23:34;;;;;;;13.75;6.45;;;;;;;26.44;59.62;101264.69;5067006;28;19916;-80
2022/08/30 04:26:00;;;;;;;17.15;5.72;;;;;;;26.43;58.93;101273.59;5066482;28;20025;-79
2022/08/30 04:28:26;;;;;;;;;;;;;;;26.43;59.09;101267.34;5068511;28;20474;-80
2022/08/30 04:30:52;;;;;;;12.88;5.22;;;;;;;26.33;59.00;101255.78;5068861;28;19917;-79
2022/08/30 04:33:18;;;;;;;;;;;;;;;26.44;59.22;101264.69;5071203;28;20450;-80
2022/08/30 04:35:45;;;;;;;17.02;5.70;;;;;;;26.33;59.72;101256.69;5070635;28;19912;-80
2022/08/30 04:38:12;;;;;;;20.25;6.35;;;;;;;26.28;59.29;101257.59;5069466;28;20031;-80
2022/08/30 04:40:44;;;;;;;21.27;6.72;;;;;;;26.35;59.27;101267.38;5040605;28;20047;-79
2022/08/30 04:43:11;;;;;;;18.60;6.13;;;;;;;26.40;59.07;101273.63;5043511;28;20029;-79
2022/08/30 04:45:38;;;;;;;17.80;5.93;;;;;;;26.41;59.38;101270.91;5065871;28;20035;-80
2022/08/30 04:48:05;;;;;;;19.42;5.82;;;;;;;26.41;58.98;101267.34;5066631;28;20528;-80
2022/08/30 04:50:31;;;;;;;16.45;5.88;;;;;;;26.40;59.17;101269.16;5048297;28;20036;-79
2022/08/30 04:52:56;;;;;;;;;;;;;;;26.46;59.08;101275.34;5066424;28;20085;-79
2022/08/30 04:55:23;;;;;;;11.93;5.40;;;;;;;26.38;59.51;101273.59;5067952;28;20026;-80
2022/08/30 04:57:49;;;;;;;17.30;6.50;;;;;;;26.38;59.59;101278.97;5045016;28;20363;-80
2022/08/30 05:00:15;;;;;;;;;;;;;;;26.41;59.47;101275.38;5071580;28;20020;-80
2022/08/30 05:02:41;;;;;;;16.63;5.50;;;;;;;26.38;59.18;101273.59;5066490;28;19999;-79
2022/08/30 05:07:52;;;;;;;16.58;5.63;;;;;;;26.31;59.40;101276.31;5054474;28;20125;-88
2022/08/30 05:10:17;;;;;;;;;;;;;;;26.40;59.34;101287.00;5069040;28;20032;-81
2022/08/30 05:12:43;;;;;;;14.63;5.50;;;;;;;26.33;59.28;101280.78;5066995;28;19916;-81
2022/08/30 05:15:10;;;;;;;17.80;6.35;;;;;;;26.37;59.66;101285.25;5064242;28;20025;-79
2022/08/30 05:17:39;;;;;;;16.50;6.05;;;;;;;26.33;59.24;101280.78;5067493;28;20028;-81
2022/08/30 05:20:10;;;;;;;13.00;5.20;;;;;;;26.37;59.18;101276.28;5060268;28;20125;-80
2022/08/30 05:22:37;;;;;;;11.32;5.55;;;;;;;26.34;59.52;101279.00;5068714;28;20028;-80
2022/08/30 05:25:04;;;;;;;18.95;5.95;;;;;;;26.22;59.60;101261.16;5059382;28;20027;-82
2022/08/30 05:27:30;;;;;;;18.98;5.82;;;;;;;26.39;59.69;101285.19;5069548;28;20032;-82
2022/08/30 05:29:55;;;;;;;13.07;5.95;;;;;;;26.38;59.66;101289.69;5069058;28;20041;-83
2022/08/30 05:32:21;;;;;;;;;;;;;;;26.41;59.49;101292.34;5069352;28;20039;-82
2022/08/30 05:34:46;;;;;;;14.50;6.00;;;;;;;26.37;59.59;101281.63;5069709;28;20282;-82
2022/08/30 05:37:12;;;;;;;12.02;5.40;;;;;;;26.33;59.40;101283.47;5064992;28;20021;-82
2022/08/30 05:39:38;;;;;;;16.80;6.43;;;;;;;26.38;59.28;101287.00;5069121;28;20079;-82
2022/08/30 05:42:03;;;;;;;14.23;5.95;;;;;;;26.27;59.45;101267.41;5069748;28;20029;-83
2022/08/30 05:44:29;;;;;;;14.05;5.63;;;;;;;26.30;59.67;101271.84;5062947;28;20025;-82
2022/08/30 05:46:55;;;;;;;13.05;5.35;;;;;;;26.39;59.65;101282.53;5033355;28;20120;-80
2022/08/30 05:49:20;;;;;;;;;;;;;;;26.41;59.80;101289.66;5069985;28;20029;-80
2022/08/30 05:51:46;;;;;;;17.23;5.65;;;;;;;26.39;59.86;101288.81;5052751;28;19912;-81
2022/08/30 05:54:13;;;;;;;14.52;5.53;;;;;;;26.39;59.85;101285.19;5068103;28;20029;-82
2022/08/30 05:56:39;;;;;;;14.65;6.40;;;;;;;26.39;59.98;101285.19;5067122;28;20024;-82
2022/08/30 05:59:07;;;;;;;13.38;5.93;;;;;;;26.39;60.09;101288.81;5049554;28;20050;-82
2022/08/30 06:01:38;;;;;;;12.60;5.43;;;;;;;26.36;59.77;101286.13;5064335;28;20028;-82
2022/08/30 06:04:06;;;;;;;13.73;5.70;;;;;;;26.41;59.74;101286.09;5066995;28;20043;-84
2022/08/30 06:06:34;;;;;;;14.27;6.00;;;;;;;26.33;60.01;101277.19;5068993;28;20027;-83
2022/08/30 06:09:01;;;;;;;16.10;6.07;;;;;;;26.34;59.84;101281.66;5068061;28;20035;-81
2022/08/30 06:11:27;;;;;;;13.70;6.25;;;;;;;26.41;60.04;101288.78;5069941;28;20032;-81
2022/08/30 06:13:53;;;;;;;;;;;;;;;26.43;59.91;101289.66;5070624;28;20485;-81
2022/08/30 06:16:21;;;;;;;14.23;6.07;;;;;;;26.39;60.14;101291.47;5069810;28;19919;-82
2022/08/30 06:18:47;;;;;;;11.15;5.95;;;;;;;26.39;59.79;101296.84;5067966;28;20032;-82
2022/08/30 06:21:18;;;;;;;16.08;5.93;;;;;;;26.37;59.92;101295.03;5050268;28;20025;-83
2022/08/30 06:23:44;;;;;;;14.27;5.75;;;;;;;26.27;60.29;101274.53;5049348;28;20504;-80
2022/08/30 06:26:11;;;;;;;18.48;6.05;;;;;;;26.39;60.41;101304.88;5067631;28;20083;-81
2022/08/30 06:28:37;;;;;;;15.77;6.13;;;;;;;26.40;60.07;101301.28;5070586;28;20024;-83
2022/08/30 06:31:08;;;;;;;;;;;;;;;26.45;60.16;101300.38;5050573;28;20041;-82
2022/08/30 06:33:34;;;;;;;13.88;5.68;;;;;;;26.33;60.22;101282.53;5070444;28;19909;-84
2022/08/30 06:36:04;;;;;;;;;;;;;;;26.42;60.20;101303.97;5051233;28;20028;-83
2022/08/30 06:38:29;;;;;;;8.20;5.18;;;;;;;26.33;60.54;101295.94;5049903;28;19951;-81
2022/08/30 06:40:55;;;;;;;;;;;;;;;26.41;60.50;101303.03;5052854;28;20585;-81
2022/08/30 06:43:21;;;;;;;13.68;5.57;;;;;;;26.33;60.65;101298.59;5062794;28;20001;-84
2022/08/30 06:45:46;;;;;;;12.40;5.57;;;;;;;26.31;61.12;101308.44;5050223;28;20547;-82
2022/08/30 06:48:12;;;;;;;;;;;;;;;26.37;60.81;101311.09;5054082;28;20039;-82
2022/08/30 06:50:37;;;;;;;13.50;5.35;;;;;;;26.35;60.82;101305.78;5069752;28;20062;-82
2022/08/30 06:53:04;;;;;;;10.38;5.00;;;;;;;26.27;60.95;101295.94;5055443;28;20031;-80
2022/08/30 06:55:33;;;;;;;11.75;5.63;;;;;;;26.31;61.22;101306.66;5073969;28;20043;-84
2022/08/30 06:58:07;;;;;;;8.38;5.28;;;;;;;26.24;61.28;101288.81;5073512;28;20028;-82
2022/08/30 07:00:32;;;;;;;11.40;5.60;;;;;;;26.23;61.11;101296.88;5062219;28;20497;-82
2022/08/30 07:02:58;;;;;;;;;;;;;;;26.33;61.27;101301.28;5072937;28;20052;-82
2022/08/30 07:05:26;;;;;;;7.82;5.00;;;;;;;26.09;61.51;101264.78;5073512;28;19909;-82
2022/08/30 07:07:53;;;;;;;12.15;5.35;;;;;;;26.23;61.13;101291.53;5061137;28;20024;-81
2022/08/30 07:10:20;;;;;;;10.85;5.78;;;;;;;26.16;61.35;101274.56;5043452;28;20028;-82
2022/08/30 07:12:46;;;;;;;11.30;5.28;;;;;;;26.29;61.16;101294.16;5071724;28;20071;-83
2022/08/30 07:15:13;;;;;;;9.05;5.05;;;;;;;26.24;61.49;101290.59;5073462;28;20028;-82
2022/08/30 07:20:22;;;;;;;10.15;5.60;;;;;;;26.32;61.35;101303.09;5073254;28;20032;-82
2022/08/30 07:22:48;;;;;;;;;;;;;;;26.36;61.20;101304.84;5073618;28;20024;-82
2022/08/30 07:25:14;;;;;;;10.95;5.35;;;;;;;26.34;61.29;101297.72;5072727;28;19939;-83
2022/08/30 07:27:40;;;;;;;13.93;5.68;;;;;;;26.30;61.43;101296.84;5072547;28;20037;-83
2022/08/30 07:30:07;;;;;;;;;;;;;;;26.29;61.56;101295.06;5055484;28;20041;-83
2022/08/30 07:32:32;;;;;;;13.00;5.60;;;;;;;26.30;61.37;101287.91;5072881;28;19915;-82
2022/08/30 07:34:58;;;;;;;10.20;5.32;;;;;;;26.25;61.75;101293.28;5063470;28;20032;-83
2022/08/30 07:37:23;;;;;;;;;;;;;;;26.31;61.47;101301.31;5073191;28;20032;-83
2022/08/30 07:39:49;;;;;;;11.32;5.88;;;;;;;26.21;61.74;101291.53;5066135;28;19912;-83
2022/08/30 07:42:15;;;;;;;10.75;5.70;;;;;;;26.08;61.98;101279.06;5062315;28;20028;-83
2022/08/30 07:44:41;;;;;;;11.98;6.05;;;;;;;26.16;61.89;101294.22;5073174;28;20021;-83
2022/08/30 07:47:06;;;;;;;11.52;6.15;;;;;;;26.25;62.14;101301.31;5071851;28;20109;-80
2022/08/30 07:49:32;;;;;;;14.02;5.60;;;;;;;26.13;62.07;101280.81;5068080;28;20032;-82
2022/08/30 07:51:58;;;;;;;;;;;;;;;26.24;62.16;101299.53;5059987;28;20029;-83
2022/08/30 07:54:23;;;;;;;11.65;5.90;;;;;;;26.24;61.96;101304.00;5067985;28;19931;-83
2022/08/30 07:56:49;;;;;;;8.57;5.45;;;;;;;26.27;62.14;101299.53;5060786;28;20036;-83
2022/08/30 07:59:15;;;;;;;;;;;;;;;26.36;61.92;101302.19;5045061;28;20424;-81
2022/08/30 08:01:40;;;;;;;12.30;5.28;;;;;;;26.30;62.01;101304.88;5068998;28;19963;-81
2022/08/30 08:04:06;;;;;;;;;;;;;;;26.30;62.14;101301.31;5072895;28;20435;-82
2022/08/30 08:06:31;;;;;;;9.07;5.35;;;;;;;26.26;62.31;101294.19;5064234;28;19916;-81
2022/08/30 08:09:01;;;;;;;;;;;;;;;26.29;62.33;101305.78;5064428;28;20130;-80
2022/08/30 08:11:27;;;;;;;9.20;5.40;;;;;;;26.22;62.08;101290.59;5062301;28;19962;-81
2022/08/30 08:13:53;;;;;;;12.15;5.95;;;;;;;26.27;62.45;101296.88;5046945;28;20077;-81
2022/08/30 08:16:20;;;;;;;9.85;5.47;;;;;;;26.29;62.36;101295.06;5036607;28;20025;-82
2022/08/30 08:18:46;;;;;;;10.05;5.20;;;;;;;26.29;62.48;101302.19;5056456;28;20525;-82
2022/08/30 08:21:11;;;;;;;;;;;;;;;26.28;62.33;101305.78;5067193;28;20030;-83
2022/08/30 08:23:37;;;;;;;8.48;5.13;;;;;;;26.20;62.63;101290.63;5067508;28;19912;-83
2022/08/30 08:26:06;;;;;;;9.88;5.32;;;;;;;26.24;62.48;101287.94;5067126;28;20028;-83
2022/08/30 08:28:31;;;;;;;10.85;5.57;;;;;;;26.29;62.45;101296.84;5049178;28;20473;-84
2022/08/30 08:30:57;;;;;;;;;;;;;;;26.27;62.71;101296.88;5071963;28;20058;-83
2022/08/30 08:33:23;;;;;;;9.30;5.10;;;;;;;26.23;62.82;101292.41;5072247;28;19912;-83
2022/08/30 08:35:48;;;;;;;;;;;;;;;26.27;62.81;101282.56;5072202;28;20036;-83
2022/08/30 08:38:14;;;;;;;9.35;4.95;;;;;;;26.27;62.52;101288.81;5067870;28;20032;-83
2022/08/30 08:40:46;;;;;;;;;;;;;;;26.28;62.46;101297.75;5039967;28;20025;-83
2022/08/30 08:43:15;;;;;;;10.10;5.05;;;;;;;26.24;62.81;101283.47;5061986;28;19912;-83
2022/08/30 08:46:09;;;;;;;10.55;5.22;;;;;;;26.26;63.11;101286.16;5054164;28;20103;-83
2022/08/30 08:48:42;;;;;;;11.70;5.55;;;;;;;26.28;62.93;101282.56;5048115;28;20078;-82
2022/08/30 08:54:36;;;;;;;9.65;5.50;;;;;;;26.30;62.91;101286.13;5052916;28;20063;-82
2022/08/30 08:57:01;;;;;;;7.80;5.30;;;;;;;26.33;63.01;101288.81;4972555;28;20042;-82
2022/08/30 08:59:27;;;;;;;;;;;;;;;26.31;62.95;101287.00;5037088;28;20114;-82
2022/08/30 09:01:55;;;;;;;8.60;4.80;;;;;;;26.25;62.91;101279.91;5063189;28;19913;-81
2022/08/30 09:04:24;;;;;;;9.15;5.55;;;;;;;26.31;63.38;101292.38;5052762;28;20035;-82
2022/08/30 09:07:02;;;;;;;9.30;5.82;;;;;;;26.30;62.80;101286.13;5058561;28;20020;-82
2022/08/30 09:09:38;;;;;;;9.25;5.18;;;;;;;26.31;63.02;101284.34;5051415;28;20477;-83
2022/08/30 09:12:06;;;;;;;8.48;5.30;;;;;;;26.30;63.50;101285.25;5051711;28;20032;-82
2022/08/30 09:14:36;;;;;;;9.35;5.32;;;;;;;26.35;63.16;101289.69;5052427;28;20023;-82
2022/08/30 09:17:14;;;;;;;10.02;5.43;;;;;;;26.30;62.98;101280.78;5070570;28;20099;-82
2022/08/30 09:19:53;;;;;;;7.38;5.05;;;;;;;26.35;63.32;101283.44;5051474;28;20017;-82
2022/08/30 09:22:37;;;;;;;9.52;5.20;;;;;;;26.38;62.89;101291.47;5069149;28;20519;-81
2022/08/30 09:25:31;;;;;;;8.50;5.32;;;;;;;26.37;63.37;101287.91;5048860;28;20139;-82
2022/08/30 09:28:24;;;;;;;9.18;5.40;;;;;;;26.07;63.26;101224.63;5062158;28;20603;-82
2022/08/30 09:31:18;;;;;;;11.20;5.70;;;;;;;25.91;63.14;101202.38;5052144;28;20144;-82
2022/08/30 09:34:29;;;;;;;10.60;5.28;;;;;;;26.45;63.13;101281.63;5051910;28;20016;-82
2022/08/30 09:36:55;;;;;;;11.13;5.90;;;;;;;26.26;62.78;101248.66;5059620;28;20036;-82
2022/08/30 09:43:19;;;;;;;10.00;4.93;;;;;;;25.96;63.14;101195.19;5054220;28;19939;-80
2022/08/30 09:56:35;;;;;;;10.77;5.68;;;;;;;26.25;63.23;101239.75;4899518;29;20059;-83
2022/08/30 09:59:22;;;;;;;9.70;5.60;;;;;;;26.50;63.28;101269.09;4911092;29;20048;-83
2022/08/30 10:01:59;;;;;;;8.23;5.25;;;;;;;26.41;62.88;101254.84;4937989;28;20072;-82
2022/08/30 10:04:38;;;;;;;8.98;5.30;;;;;;;26.43;63.25;101249.50;4981837;28;20034;-83
2022/08/30 10:07:46;;;;;;;8.23;5.00;;;;;;;26.33;63.19;101245.06;4997020;28;20053;-82
2022/08/30 10:10:29;;;;;;;11.45;5.32;;;;;;;26.47;63.30;101255.72;4949967;28;20054;-81
2022/08/30 10:13:56;;;;;;;7.85;4.82;;;;;;;25.94;62.85;101178.25;5004653;28;20205;-81
2022/08/30 10:16:37;;;;;;;9.95;5.20;;;;;;;26.51;62.94;101263.75;4962692;28;20041;-82
2022/08/30 10:19:29;;;;;;;7.70;5.10;;;;;;;26.49;62.76;101253.94;5044959;28;20705;-82
2022/08/30 10:22:14;;;;;;;9.82;4.80;;;;;;;26.46;62.62;101249.50;5057581;28;20567;-82
2022/08/30 10:24:50;;;;;;;8.57;5.40;;;;;;;26.38;62.70;101232.56;5051960;28;20016;-81
2022/08/30 10:27:59;;;;;;;;;;;;;;;;;;;;;
2022/08/30 10:30:45;;;;;;;11.27;5.38;;;;;;;26.41;62.58;101233.41;5065230;28;20057;-82
2022/08/30 10:33:30;;;;;;;;;;;;;;;;;;;;;
2022/08/30 10:36:00;;;;;;;12.23;5.30;;;;;;;26.20;62.95;101204.03;5072085;28;20029;-83
2022/08/30 10:39:21;;;;;;;;;;;;;;;;;;;;;
2022/08/30 10:46:04;;;;;;;12.70;5.53;;;;;;;26.43;63.30;101228.06;4921368;28;20050;-82
2022/08/30 10:48:52;;;;;;;11.85;5.55;;;;;;;26.52;63.56;101240.53;4963446;28;20049;-82
2022/08/30 10:52:53;;;;;;;;;;;;;;;;;;;;;
2022/08/30 10:55:12;;;;;;;14.75;5.53;;;;;;;25.98;64.05;101145.25;4996975;28;20413;-82
2022/08/30 11:05:24;;;;;;;11.00;5.07;;;;;;;26.54;63.47;101236.03;4983040;28;20415;-82
2022/08/30 11:08:25;;;;;;;10.65;5.30;;;;;;;26.45;62.67;101212.00;5053459;28;20123;-83
2022/08/30 11:11:26;;;;;;;11.32;5.03;;;;;;;26.38;62.21;101193.28;5055993;28;20028;-82
2022/08/30 11:13:53;;;;;;;11.23;5.07;;;;;;;26.22;62.25;101170.13;5053325;28;20021;-82
2022/08/30 11:16:33;;;;;;;13.18;5.78;;;;;;;26.02;63.02;101139.91;5055502;28;20036;-82
2022/08/30 11:18:59;;;;;;;12.55;5.60;;;;;;;26.28;63.08;101174.56;5055980;28;20032;-83
2022/08/30 11:28:54;;;;;;;13.10;5.07;;;;;;;26.71;63.16;101217.25;5057689;28;20032;-82
2022/08/30 11:45:44;;;;;;;;;;;;;;;;;;;;;
2022/08/30 11:48:40;;;;;;;12.75;5.70;;;;;;;26.83;62.82;101201.09;4997584;28;20171;-81
2022/08/30 11:51:28;;;;;;;12.15;5.45;;;;;;;26.78;63.01;101190.41;5012366;28;20486;-83
2022/08/30 11:54:20;;;;;;;11.55;5.88;;;;;;;26.64;63.41;101172.66;4967568;28;20070;-82
2022/08/30 11:57:06;;;;;;;12.07;5.35;;;;;;;26.82;63.64;101196.66;5069613;28;20023;-82
2022/08/30 11:59:58;;;;;;;11.75;5.65;;;;;;;26.75;63.22;101181.50;5033513;28;20028;-83
2022/08/30 12:02:42;;;;;;;11.13;5.38;;;;;;;26.86;62.76;101190.38;5053145;28;20028;-83
2022/08/30 12:05:39;;;;;;;14.38;6.05;;;;;;;26.91;63.01;101195.69;5052313;28;20017;-82
2022/08/30 12:08:24;;;;;;;9.80;5.53;;;;;;;26.88;62.93;101188.59;5064553;28;20578;-83
2022/08/30 12:10:52;;;;;;;10.20;5.95;;;;;;;26.95;62.90;101195.66;5068708;28;20020;-83
2022/08/30 12:13:36;;;;;;;11.80;6.00;;;;;;;26.85;63.49;101176.97;5035386;28;20098;-82
2022/08/30 12:16:07;;;;;;;10.13;5.28;;;;;;;26.33;62.87;101093.34;5054353;28;20028;-82
2022/08/30 12:18:55;;;;;;;13.52;5.63;;;;;;;26.95;62.91;101189.41;5052879;28;20071;-82
2022/08/30 12:21:44;;;;;;;11.60;5.30;;;;;;;26.97;63.02;101193.88;5048887;28;20477;-82
2022/08/30 12:24:35;;;;;;;12.10;5.57;;;;;;;26.95;62.87;101189.41;5051866;28;20444;-82
2022/08/30 12:27:04;;;;;;;12.05;5.35;;;;;;;26.53;63.30;101124.47;5054214;28;20067;-82
2022/08/30 12:29:32;;;;;;;13.98;5.88;;;;;;;26.55;62.98;101118.19;5054667;28;20440;-82
2022/08/30 12:32:08;;;;;;;10.43;5.88;;;;;;;26.81;63.02;101147.50;5054187;28;20035;-83
2022/08/30 12:34:42;;;;;;;9.07;5.30;;;;;;;26.89;62.92;101160.88;5052353;28;20028;-83
2022/08/30 12:37:40;;;;;;;13.32;5.47;;;;;;;27.02;62.81;101181.31;5051522;28;20472;-82
2022/08/30 12:40:20;;;;;;;12.90;5.60;;;;;;;26.68;63.17;101126.19;5049219;28;20064;-83
2022/08/30 12:43:24;;;;;;;11.93;5.38;;;;;;;27.00;63.36;101183.09;5029273;28;20032;-82
2022/08/30 12:46:02;;;;;;;10.93;5.45;;;;;;;26.72;63.62;101136.88;5025472;28;20715;-83
2022/08/30 12:48:33;;;;;;;11.93;5.57;;;;;;;26.56;64.62;101108.34;5051112;28;20170;-83
2022/08/30 12:51:00;;;;;;;12.00;5.70;;;;;;;26.90;64.41;101159.06;5036346;28;20068;-82